createdAt,value
2022-10-28T00:01:17.106Z,35.00
2022-10-28T00:03:51.540Z,35.40
2022-10-28T00:06:31.468Z,38.00
2022-10-28T00:08:59.500Z,36.40
2022-10-28T00:11:31.828Z,36.60
2022-10-28T00:14:03.709Z,42.00
2022-10-28T00:16:33.735Z,37.10
2022-10-28T00:19:02.548Z,35.80
2022-10-28T00:21:32.925Z,39.30
2022-10-28T00:24:00.740Z,35.30
2022-10-28T00:26:30.993Z,35.10
2022-10-28T00:29:05.598Z,40.10
2022-10-28T00:31:34.919Z,38.60
2022-10-28T00:34:16.318Z,42.30
2022-10-28T00:36:45.847Z,44.30
2022-10-28T00:39:22.352Z,47.70
2022-10-28T00:41:59.690Z,48.00
2022-10-28T00:44:39.979Z,43.80
2022-10-28T00:47:18.251Z,44.40
2022-10-28T00:49:46.732Z,49.70
2022-10-28T00:52:19.472Z,47.70
2022-10-28T00:54:47.214Z,54.20
2022-10-28T00:57:18.141Z,46.00
2022-10-28T00:59:51.194Z,50.40
2022-10-28T01:02:19.827Z,52.80
2022-10-28T01:04:48.085Z,53.80
2022-10-28T01:07:16.333Z,55.20
2022-10-28T01:09:44.117Z,56.10
2022-10-28T01:12:29.956Z,54.00
2022-10-28T01:15:19.048Z,50.20
2022-10-28T01:18:05.916Z,50.30
2022-10-28T01:21:01.619Z,50.40
2022-10-28T01:24:23.000Z,52.40
2022-10-28T01:27:20.194Z,53.50
2022-10-28T01:30:18.962Z,52.60
2022-10-28T01:33:08.644Z,52.50
2022-10-28T01:35:52.695Z,51.70
2022-10-28T01:38:36.408Z,54.80
2022-10-28T01:41:32.231Z,53.00
2022-10-28T01:44:31.835Z,53.90
2022-10-28T01:47:10.049Z,52.20
2022-10-28T01:50:08.846Z,54.00
2022-10-28T01:52:36.602Z,49.60
2022-10-28T01:55:18.171Z,52.50
2022-10-28T01:57:45.889Z,52.00
2022-10-28T02:00:14.644Z,50.20
2022-10-28T02:02:43.017Z,47.00
2022-10-28T02:05:40.446Z,48.80
2022-10-28T02:08:46.162Z,47.60
2022-10-28T02:12:02.376Z,47.50
2022-10-28T02:14:36.336Z,46.40
2022-10-28T02:18:02.166Z,43.20
2022-10-28T02:20:57.719Z,45.80
2022-10-28T02:23:47.587Z,43.80
2022-10-28T02:26:19.759Z,48.60
2022-10-28T02:28:53.143Z,43.50
2022-10-28T02:31:32.476Z,39.60
2022-10-28T02:34:14.453Z,39.40
2022-10-28T02:36:45.710Z,48.10
2022-10-28T02:39:13.428Z,43.00
2022-10-28T02:41:54.953Z,42.70
2022-10-28T02:44:27.867Z,40.30
2022-10-28T02:46:57.549Z,46.10
2022-10-28T02:49:25.390Z,45.50
2022-10-28T02:52:04.217Z,47.70
2022-10-28T02:54:40.516Z,45.70
2022-10-28T02:57:17.622Z,46.00
2022-10-28T02:59:57.664Z,48.00
2022-10-28T03:02:25.905Z,47.10
2022-10-28T03:04:53.875Z,49.10
2022-10-28T03:07:21.712Z,46.40
2022-10-28T03:09:49.518Z,45.50
2022-10-28T03:12:17.342Z,44.70
2022-10-28T03:14:45.867Z,38.70
2022-10-28T03:17:13.590Z,44.10
2022-10-28T03:19:41.339Z,44.10
2022-10-28T03:22:09.070Z,44.50
2022-10-28T03:24:36.792Z,42.50
2022-10-28T03:27:04.570Z,40.80
2022-10-28T03:29:32.434Z,44.20
2022-10-28T03:32:00.203Z,42.90
2022-10-28T03:34:27.910Z,44.00
2022-10-28T03:36:55.770Z,39.50
2022-10-28T03:39:23.776Z,39.50
2022-10-28T03:41:51.564Z,49.50
2022-10-28T03:44:19.323Z,47.40
2022-10-28T03:46:47.355Z,45.30
2022-10-28T03:49:15.164Z,45.10
2022-10-28T03:51:42.908Z,43.70
2022-10-28T03:54:10.668Z,44.50
2022-10-28T03:56:40.664Z,43.60
2022-10-28T03:59:12.440Z,47.10
2022-10-28T04:01:41.900Z,38.50
2022-10-28T04:04:09.671Z,38.50
2022-10-28T04:06:37.385Z,50.70
2022-10-28T04:09:05.136Z,41.70
2022-10-28T04:11:32.920Z,38.40
2022-10-28T04:14:00.686Z,50.40
2022-10-28T04:16:28.764Z,47.90
2022-10-28T04:18:56.518Z,52.50
2022-10-28T04:21:24.243Z,37.20
2022-10-28T04:23:51.964Z,38.40
2022-10-28T04:26:19.819Z,33.40
2022-10-28T04:28:47.519Z,38.70
2022-10-28T04:31:15.450Z,38.60
2022-10-28T04:33:43.293Z,38.50
2022-10-28T04:36:11.082Z,41.30
2022-10-28T04:38:38.828Z,44.40
2022-10-28T04:41:06.636Z,43.60
2022-10-28T04:43:34.311Z,46.30
2022-10-28T04:46:06.126Z,47.60
2022-10-28T04:48:34.498Z,45.40
2022-10-28T04:51:02.469Z,42.50
2022-10-28T04:53:30.401Z,47.00
2022-10-28T04:55:58.910Z,44.20
2022-10-28T04:58:26.913Z,45.70
2022-10-28T05:00:54.752Z,44.50
2022-10-28T05:03:22.461Z,47.20
2022-10-28T05:05:50.282Z,46.00
2022-10-28T05:08:18.004Z,44.10
2022-10-28T05:10:50.074Z,48.60
2022-10-28T05:13:18.893Z,56.70
2022-10-28T05:15:49.607Z,58.80
2022-10-28T05:18:18.032Z,55.80
2022-10-28T05:20:45.782Z,50.90
2022-10-28T05:23:13.522Z,45.50
2022-10-28T05:25:42.884Z,57.60
2022-10-28T05:28:11.437Z,46.10
2022-10-28T05:30:39.180Z,52.00
2022-10-28T05:33:07.150Z,46.80
2022-10-28T05:35:34.917Z,55.80
2022-10-28T05:38:02.779Z,44.50
2022-10-28T05:40:32.704Z,41.70
2022-10-28T05:43:01.621Z,48.80
2022-10-28T05:47:58.120Z,51.40
2022-10-28T05:50:25.956Z,41.60
2022-10-28T05:52:55.922Z,38.30
2022-10-28T05:55:27.796Z,41.50
2022-10-28T05:57:56.265Z,37.10
2022-10-28T06:00:25.660Z,37.10
2022-10-28T06:02:53.645Z,37.30
2022-10-28T06:05:21.762Z,38.20
2022-10-28T06:07:49.490Z,38.10
2022-10-28T06:10:17.350Z,41.00
2022-10-28T06:12:43.535Z,35.40
2022-10-28T06:15:11.232Z,39.40
2022-10-28T06:17:39.068Z,36.50
2022-10-28T06:20:07.954Z,39.30
2022-10-28T06:22:35.649Z,37.90
2022-10-28T06:25:04.437Z,40.20
2022-10-28T06:27:33.437Z,42.30
2022-10-28T06:30:01.306Z,34.80
2022-10-28T06:32:29.452Z,39.40
2022-10-28T06:34:57.244Z,48.30
2022-10-28T06:37:25.002Z,53.40
2022-10-28T06:39:52.911Z,52.90
2022-10-28T06:42:21.682Z,48.20
2022-10-28T06:44:50.865Z,49.50
2022-10-28T06:47:21.022Z,47.60
2022-10-28T06:49:48.833Z,44.40
2022-10-28T06:52:16.606Z,44.20
2022-10-28T06:54:44.496Z,50.60
2022-10-28T06:57:12.546Z,53.30
2022-10-28T06:59:42.182Z,51.40
2022-10-28T07:02:13.531Z,49.00
2022-10-28T07:04:42.471Z,46.20
2022-10-28T07:07:10.726Z,42.20
2022-10-28T07:09:39.677Z,47.60
2022-10-28T07:12:08.556Z,48.30
2022-10-28T07:14:36.530Z,46.90
2022-10-28T07:17:04.598Z,39.20
2022-10-28T07:19:32.365Z,44.10
2022-10-28T07:22:00.162Z,40.90
2022-10-28T07:27:00.582Z,38.10
2022-10-28T07:29:28.409Z,39.40
2022-10-28T07:31:56.579Z,39.30
2022-10-28T07:34:27.066Z,41.10
2022-10-28T07:36:55.839Z,39.80
2022-10-28T07:39:23.801Z,41.00
2022-10-28T07:41:51.691Z,40.70
2022-10-28T07:44:19.581Z,45.90
2022-10-28T07:46:47.406Z,39.30
2022-10-28T07:49:15.782Z,36.30
2022-10-28T07:51:43.496Z,39.40
2022-10-28T07:54:11.450Z,41.00
2022-10-28T07:56:39.187Z,38.90
2022-10-28T07:59:07.243Z,36.00
2022-10-28T08:01:35.296Z,38.50
2022-10-28T08:04:03.277Z,35.30
2022-10-28T08:06:30.961Z,34.70
2022-10-28T08:08:58.799Z,40.00
2022-10-28T08:11:26.615Z,34.70
2022-10-28T08:13:55.435Z,38.40
2022-10-28T08:16:23.389Z,40.30
2022-10-28T08:18:53.334Z,36.10
2022-10-28T08:21:21.588Z,33.90
2022-10-28T08:23:50.068Z,33.00
2022-10-28T08:26:17.881Z,33.00
2022-10-28T08:28:45.708Z,32.50
2022-10-28T08:31:13.718Z,32.40
2022-10-28T08:33:45.228Z,32.10
2022-10-28T08:36:15.259Z,31.80
2022-10-28T08:38:45.657Z,30.50
2022-10-28T08:41:29.202Z,28.20
2022-10-28T08:44:49.691Z,29.40
2022-10-28T08:48:04.842Z,26.40
2022-10-28T08:50:33.979Z,26.60
2022-10-28T08:53:07.462Z,26.30
2022-10-28T08:55:40.228Z,29.20
2022-10-28T08:58:29.878Z,27.70
2022-10-28T09:01:00.132Z,31.70
2022-10-28T09:03:42.283Z,26.30
2022-10-28T09:06:10.590Z,27.20
2022-10-28T09:08:48.836Z,27.60
2022-10-28T09:14:49.281Z,23.30
2022-10-28T09:17:18.721Z,25.80
2022-10-28T09:19:58.918Z,26.80
2022-10-28T09:22:52.841Z,21.90
2022-10-28T09:25:48.927Z,25.50
2022-10-28T09:32:29.971Z,21.60
2022-10-28T09:38:12.298Z,19.60
2022-10-28T09:40:41.984Z,22.20
2022-10-28T09:46:14.164Z,21.00
2022-10-28T09:51:45.035Z,19.10
2022-10-28T09:54:13.470Z,17.30
2022-10-28T09:56:41.320Z,18.70
2022-10-28T09:59:13.454Z,19.90
2022-10-28T10:04:28.772Z,18.70
2022-10-28T10:07:10.125Z,19.30
2022-10-28T10:09:38.703Z,17.70
2022-10-28T10:14:57.567Z,16.40
2022-10-28T10:17:42.000Z,18.10
2022-10-28T10:20:14.921Z,19.60
2022-10-28T10:22:44.907Z,17.60
2022-10-28T10:25:19.050Z,16.50
2022-10-28T10:28:16.550Z,18.50
2022-10-28T10:31:01.057Z,19.00
2022-10-28T10:33:39.777Z,20.00
2022-10-28T10:36:17.814Z,18.70
2022-10-28T10:41:45.045Z,14.80
2022-10-28T10:44:22.388Z,14.40
2022-10-28T10:46:53.614Z,14.00
2022-10-28T10:52:21.631Z,13.70
2022-10-28T11:00:39.083Z,14.60
2022-10-28T11:03:07.588Z,12.00
2022-10-28T11:05:38.103Z,12.30
2022-10-28T11:08:27.735Z,11.90
2022-10-28T11:11:07.818Z,11.10
2022-10-28T11:13:35.948Z,10.40
2022-10-28T11:24:55.696Z,10.20
2022-10-28T11:27:49.989Z,13.10
2022-10-28T11:30:54.147Z,9.80
2022-10-28T11:33:30.660Z,10.10
2022-10-28T11:36:33.222Z,10.50
2022-10-28T11:46:04.578Z,10.60
2022-10-28T11:49:20.008Z,9.40
2022-10-28T11:51:55.875Z,9.90
2022-10-28T11:54:32.198Z,10.60
2022-10-28T11:57:09.309Z,14.40
2022-10-28T12:00:29.601Z,11.80
2022-10-28T12:03:37.822Z,11.60
2022-10-28T12:09:46.707Z,7.90
2022-10-28T12:12:33.478Z,8.50
2022-10-28T12:15:45.245Z,10.00
2022-10-28T12:18:29.806Z,7.90
2022-10-28T12:24:21.373Z,12.10
2022-10-28T12:26:55.457Z,10.80
2022-10-28T12:29:28.289Z,10.20
2022-10-28T12:32:03.005Z,14.00
2022-10-28T12:34:55.629Z,10.80
2022-10-28T12:43:14.567Z,10.00
2022-10-28T12:45:42.609Z,11.10
2022-10-28T12:57:26.427Z,11.60
2022-10-28T13:00:05.038Z,13.10
2022-10-28T13:02:39.631Z,8.80
2022-10-28T13:05:08.175Z,12.20
2022-10-28T13:07:58.762Z,12.80
2022-10-28T13:10:48.570Z,13.00
2022-10-28T13:13:47.188Z,11.40
2022-10-28T13:16:31.147Z,10.50
2022-10-28T13:22:44.886Z,10.00
2022-10-28T13:25:38.276Z,9.70
2022-10-28T13:28:06.347Z,8.80
2022-10-28T13:30:35.280Z,10.80
2022-10-28T13:33:09.766Z,8.90
2022-10-28T13:35:37.643Z,10.60
2022-10-28T13:43:50.831Z,9.40
2022-10-28T13:47:00.079Z,9.60
2022-10-28T13:49:35.494Z,8.50
2022-10-28T13:52:08.360Z,9.50
2022-10-28T13:54:58.885Z,10.70
2022-10-28T13:57:32.757Z,10.10
2022-10-28T14:00:19.088Z,12.50
2022-10-28T14:05:43.499Z,8.80
2022-10-28T14:08:27.949Z,12.90
2022-10-28T14:16:53.148Z,13.50
2022-10-28T14:19:22.113Z,12.10
2022-10-28T14:22:08.606Z,10.30
2022-10-28T14:24:43.648Z,11.20
2022-10-28T14:30:19.595Z,9.50
2022-10-28T14:35:41.893Z,17.90
2022-10-28T14:38:24.962Z,21.90
2022-10-28T14:41:34.809Z,23.70
2022-10-28T14:44:30.585Z,21.00
2022-10-28T14:47:13.940Z,17.30
2022-10-28T14:49:55.902Z,16.80
2022-10-28T14:52:23.685Z,20.50
2022-10-28T14:54:57.423Z,21.70
2022-10-28T14:57:32.647Z,22.90
2022-10-28T15:00:06.997Z,20.70
2022-10-28T15:02:36.124Z,14.50
2022-10-28T15:05:21.663Z,21.00
2022-10-28T15:07:49.555Z,28.20
2022-10-28T15:13:15.902Z,27.80
2022-10-28T15:18:40.769Z,26.90
2022-10-28T15:21:10.374Z,26.10
2022-10-28T15:23:39.226Z,19.90
2022-10-28T15:26:14.154Z,15.90
2022-10-28T15:28:42.472Z,15.30
2022-10-28T15:31:13.305Z,12.80
2022-10-28T15:36:27.678Z,16.90
2022-10-28T15:39:14.049Z,17.20
2022-10-28T15:41:43.292Z,23.50
2022-10-28T15:44:37.462Z,28.20
2022-10-28T15:47:33.426Z,27.20
2022-10-28T15:50:15.387Z,28.90
2022-10-28T15:52:54.282Z,29.80
2022-10-28T15:55:26.771Z,26.00
2022-10-28T15:58:25.286Z,30.20
2022-10-28T16:00:54.897Z,27.30
2022-10-28T16:09:32.381Z,36.90
2022-10-28T16:15:13.707Z,45.90
2022-10-28T16:17:41.879Z,47.50
2022-10-28T16:20:18.336Z,46.70
2022-10-28T16:22:48.530Z,40.30
2022-10-28T16:25:25.548Z,37.90
2022-10-28T16:27:54.821Z,34.10
2022-10-28T16:30:23.549Z,26.00
2022-10-28T16:35:36.900Z,21.50
2022-10-28T16:38:12.371Z,18.80
2022-10-28T16:40:55.554Z,20.10
2022-10-28T16:43:25.006Z,22.70
2022-10-28T16:45:55.071Z,25.00
2022-10-28T16:48:30.567Z,25.90
2022-10-28T16:51:14.049Z,24.50
2022-10-28T16:56:32.461Z,27.40
2022-10-28T16:59:00.287Z,28.00
2022-10-28T17:01:28.230Z,24.80
2022-10-28T17:03:56.260Z,24.70
2022-10-28T17:06:24.022Z,27.50
2022-10-28T17:09:07.211Z,29.40
2022-10-28T17:11:35.182Z,24.30
2022-10-28T17:14:02.981Z,26.50
2022-10-28T17:22:05.077Z,26.00
2022-10-28T17:24:35.568Z,26.40
2022-10-28T17:29:49.475Z,27.00
2022-10-28T17:32:17.508Z,30.50
2022-10-28T17:34:45.574Z,27.40
2022-10-28T17:37:13.542Z,28.40
2022-10-28T17:39:42.550Z,28.50
2022-10-28T17:42:10.612Z,28.80
2022-10-28T17:47:23.791Z,27.30
2022-10-28T17:49:51.612Z,33.60
2022-10-28T17:52:19.848Z,24.70
2022-10-28T17:54:47.934Z,23.50
2022-10-28T17:57:15.755Z,29.00
2022-10-28T17:59:43.591Z,33.70
2022-10-28T18:02:13.413Z,32.60
2022-10-28T18:04:44.471Z,31.90
2022-10-28T18:07:12.148Z,32.10
2022-10-28T18:09:42.160Z,36.70
2022-10-28T18:12:12.610Z,36.20
2022-10-28T18:17:26.186Z,32.60
2022-10-28T18:19:57.854Z,33.30
2022-10-28T18:24:58.508Z,32.40
2022-10-28T18:27:29.215Z,31.90
2022-10-28T18:29:57.106Z,36.50
2022-10-28T18:32:25.278Z,35.60
2022-10-28T18:34:53.201Z,32.40
2022-10-28T18:40:09.066Z,31.30
2022-10-28T18:51:20.709Z,22.80
2022-10-28T18:53:49.689Z,25.20
2022-10-28T18:56:26.125Z,19.60
2022-10-28T19:01:46.989Z,17.90
2022-10-28T19:04:19.551Z,17.20
2022-10-28T19:06:47.535Z,18.10
2022-10-28T19:09:16.119Z,16.20
2022-10-28T19:11:44.377Z,19.50
2022-10-28T19:16:58.139Z,22.50
2022-10-28T19:19:26.235Z,20.30
2022-10-28T19:21:56.018Z,17.60
2022-10-28T19:24:23.817Z,16.60
2022-10-28T19:26:52.581Z,18.00
2022-10-28T19:34:58.780Z,18.90
2022-10-28T19:37:54.177Z,15.70
2022-10-28T19:40:25.529Z,15.60
2022-10-28T19:45:50.192Z,18.60
2022-10-28T19:48:20.707Z,16.40
2022-10-28T19:53:35.757Z,16.00
2022-10-28T19:59:01.666Z,15.40
2022-10-28T20:01:38.236Z,16.50
2022-10-28T20:04:07.350Z,19.40
2022-10-28T20:06:38.740Z,16.50
2022-10-28T20:11:51.889Z,16.90
2022-10-28T20:14:19.959Z,18.20
2022-10-28T20:19:56.391Z,19.60
2022-10-28T20:25:56.596Z,19.50
2022-10-28T20:29:00.948Z,20.50
2022-10-28T20:32:16.868Z,17.70
2022-10-28T20:35:32.215Z,17.20
2022-10-28T20:41:00.793Z,21.60
2022-10-28T20:43:49.097Z,19.40
2022-10-28T20:46:28.174Z,19.80
2022-10-28T20:48:57.012Z,18.80
2022-10-28T20:54:14.866Z,22.20
2022-10-28T20:56:48.547Z,23.70
2022-10-28T21:02:08.016Z,17.50
2022-10-28T21:07:53.103Z,16.20
2022-10-28T21:10:32.715Z,15.60
2022-10-28T21:13:35.374Z,18.80
2022-10-28T21:16:12.825Z,20.00
2022-10-28T21:19:08.166Z,19.80
2022-10-28T21:21:49.912Z,15.90
2022-10-28T21:24:23.967Z,17.50
2022-10-28T21:27:03.515Z,19.70
2022-10-28T21:29:36.724Z,19.00
2022-10-28T21:32:05.736Z,20.20
2022-10-28T21:34:34.121Z,18.10
2022-10-28T21:37:02.247Z,15.00
2022-10-28T21:39:30.250Z,15.50
2022-10-28T21:41:58.086Z,16.00
2022-10-28T21:50:00.797Z,17.60
2022-10-28T21:55:20.444Z,17.50
2022-10-28T21:57:51.233Z,17.50
2022-10-28T22:00:21.256Z,16.00
2022-10-28T22:02:51.082Z,16.90
2022-10-28T22:05:19.229Z,17.10
2022-10-28T22:07:47.040Z,16.90
2022-10-28T22:10:14.969Z,20.30
2022-10-28T22:12:46.327Z,18.40
2022-10-28T22:17:59.575Z,18.80
2022-10-28T22:20:34.381Z,19.50
2022-10-28T22:23:05.375Z,19.50
2022-10-28T22:25:42.110Z,22.40
2022-10-28T22:28:10.445Z,17.60
2022-10-28T22:30:45.408Z,19.40
2022-10-28T22:33:22.487Z,21.20
2022-10-28T22:36:05.573Z,18.90
2022-10-28T22:38:38.099Z,16.80
2022-10-28T22:41:33.249Z,17.00
2022-10-28T22:49:43.284Z,18.10
2022-10-28T22:52:19.136Z,16.60
2022-10-28T22:54:47.115Z,16.20
2022-10-28T22:57:16.200Z,18.80
2022-10-28T23:03:09.887Z,18.20
2022-10-28T23:08:23.054Z,18.50
2022-10-28T23:13:39.373Z,15.80
2022-10-28T23:16:10.741Z,16.20
2022-10-28T23:18:38.670Z,16.70
2022-10-28T23:21:15.041Z,15.40
2022-10-28T23:23:43.301Z,14.90
2022-10-28T23:31:46.735Z,15.50
2022-10-28T23:34:16.923Z,14.40
2022-10-28T23:36:44.740Z,17.00
2022-10-28T23:41:57.906Z,17.40
2022-10-28T23:44:25.901Z,13.10
2022-10-28T23:49:40.013Z,15.90
2022-10-28T23:54:53.040Z,15.40
2022-10-28T23:57:20.778Z,15.60
